sensor_id;sensor_type;location;lat;lon;timestamp;P1;durP1;ratioP1;P2;durP2;ratioP2
55007;SDS011;40902;45.116;21.296;2023-04-15T00:00:04;3.78;;;1.77;;
55007;SDS011;40902;45.116;21.296;2023-04-15T00:02:31;3.15;;;1.20;;
55007;SDS011;40902;45.116;21.296;2023-04-15T00:04:56;3.80;;;1.90;;
55007;SDS011;40902;45.116;21.296;2023-04-15T00:07:22;3.50;;;1.92;;
55007;SDS011;40902;45.116;21.296;2023-04-15T00:09:48;4.78;;;1.98;;
55007;SDS011;40902;45.116;21.296;2023-04-15T00:12:13;3.67;;;1.83;;
55007;SDS011;40902;45.116;21.296;2023-04-15T00:14:39;4.22;;;1.98;;
55007;SDS011;40902;45.116;21.296;2023-04-15T00:17:05;5.47;;;2.17;;
55007;SDS011;40902;45.116;21.296;2023-04-15T00:19:31;4.82;;;2.10;;
55007;SDS011;40902;45.116;21.296;2023-04-15T00:21:57;5.40;;;1.90;;
55007;SDS011;40902;45.116;21.296;2023-04-15T00:24:23;3.20;;;1.58;;
55007;SDS011;40902;45.116;21.296;2023-04-15T00:26:49;5.03;;;2.00;;
55007;SDS011;40902;45.116;21.296;2023-04-15T00:29:15;4.18;;;1.75;;
55007;SDS011;40902;45.116;21.296;2023-04-15T00:31:41;4.13;;;1.80;;
55007;SDS011;40902;45.116;21.296;2023-04-15T00:34:07;3.40;;;1.58;;
55007;SDS011;40902;45.116;21.296;2023-04-15T00:36:33;4.18;;;1.60;;
55007;SDS011;40902;45.116;21.296;2023-04-15T00:39:00;3.67;;;1.65;;
55007;SDS011;40902;45.116;21.296;2023-04-15T00:41:27;3.30;;;1.65;;
55007;SDS011;40902;45.116;21.296;2023-04-15T00:43:53;4.43;;;2.00;;
55007;SDS011;40902;45.116;21.296;2023-04-15T00:46:20;7.35;;;2.38;;
55007;SDS011;40902;45.116;21.296;2023-04-15T00:48:46;6.38;;;2.33;;
55007;SDS011;40902;45.116;21.296;2023-04-15T00:51:13;4.20;;;1.92;;
55007;SDS011;40902;45.116;21.296;2023-04-15T00:53:39;4.55;;;1.90;;
55007;SDS011;40902;45.116;21.296;2023-04-15T00:56:05;4.28;;;2.00;;
55007;SDS011;40902;45.116;21.296;2023-04-15T00:58:31;4.63;;;1.80;;
55007;SDS011;40902;45.116;21.296;2023-04-15T01:00:57;4.00;;;1.70;;
55007;SDS011;40902;45.116;21.296;2023-04-15T01:03:24;3.05;;;1.70;;
55007;SDS011;40902;45.116;21.296;2023-04-15T01:05:50;2.63;;;1.50;;
55007;SDS011;40902;45.116;21.296;2023-04-15T01:08:25;4.65;;;1.80;;
55007;SDS011;40902;45.116;21.296;2023-04-15T01:10:51;3.00;;;1.70;;
55007;SDS011;40902;45.116;21.296;2023-04-15T01:13:18;3.38;;;1.70;;
55007;SDS011;40902;45.116;21.296;2023-04-15T01:15:45;4.22;;;1.88;;
55007;SDS011;40902;45.116;21.296;2023-04-15T01:18:12;5.57;;;2.15;;
55007;SDS011;40902;45.116;21.296;2023-04-15T01:20:38;4.50;;;2.00;;
55007;SDS011;40902;45.116;21.296;2023-04-15T01:23:05;5.20;;;2.30;;
55007;SDS011;40902;45.116;21.296;2023-04-15T01:25:31;4.57;;;2.20;;
55007;SDS011;40902;45.116;21.296;2023-04-15T01:27:58;3.60;;;2.03;;
55007;SDS011;40902;45.116;21.296;2023-04-15T01:30:24;4.60;;;2.15;;
55007;SDS011;40902;45.116;21.296;2023-04-15T01:32:51;6.40;;;2.53;;
55007;SDS011;40902;45.116;21.296;2023-04-15T01:35:17;4.45;;;2.22;;
55007;SDS011;40902;45.116;21.296;2023-04-15T01:37:43;7.07;;;2.95;;
55007;SDS011;40902;45.116;21.296;2023-04-15T01:40:10;3.80;;;2.20;;
55007;SDS011;40902;45.116;21.296;2023-04-15T01:42:36;5.80;;;2.72;;
55007;SDS011;40902;45.116;21.296;2023-04-15T01:45:02;5.55;;;2.50;;
55007;SDS011;40902;45.116;21.296;2023-04-15T01:47:28;5.72;;;2.40;;
55007;SDS011;40902;45.116;21.296;2023-04-15T01:49:54;6.40;;;3.15;;
55007;SDS011;40902;45.116;21.296;2023-04-15T01:52:20;6.68;;;3.20;;
55007;SDS011;40902;45.116;21.296;2023-04-15T01:54:47;5.18;;;2.63;;
55007;SDS011;40902;45.116;21.296;2023-04-15T01:57:13;6.00;;;2.70;;
55007;SDS011;40902;45.116;21.296;2023-04-15T01:59:39;5.88;;;2.78;;
55007;SDS011;40902;45.116;21.296;2023-04-15T02:02:06;3.70;;;2.38;;
55007;SDS011;40902;45.116;21.296;2023-04-15T02:04:32;5.15;;;2.40;;
55007;SDS011;40902;45.116;21.296;2023-04-15T02:06:58;5.95;;;2.40;;
55007;SDS011;40902;45.116;21.296;2023-04-15T02:09:24;4.85;;;2.00;;
55007;SDS011;40902;45.116;21.296;2023-04-15T02:11:51;4.40;;;2.10;;
55007;SDS011;40902;45.116;21.296;2023-04-15T02:14:18;4.97;;;2.40;;
55007;SDS011;40902;45.116;21.296;2023-04-15T02:16:44;3.78;;;2.00;;
55007;SDS011;40902;45.116;21.296;2023-04-15T02:19:10;4.20;;;2.13;;
55007;SDS011;40902;45.116;21.296;2023-04-15T02:21:36;5.40;;;2.10;;
55007;SDS011;40902;45.116;21.296;2023-04-15T02:24:03;5.25;;;2.00;;
55007;SDS011;40902;45.116;21.296;2023-04-15T02:26:30;4.78;;;2.10;;
55007;SDS011;40902;45.116;21.296;2023-04-15T02:28:57;4.50;;;2.50;;
55007;SDS011;40902;45.116;21.296;2023-04-15T02:31:23;4.85;;;2.50;;
55007;SDS011;40902;45.116;21.296;2023-04-15T02:33:50;4.03;;;2.10;;
55007;SDS011;40902;45.116;21.296;2023-04-15T02:36:16;5.10;;;1.90;;
55007;SDS011;40902;45.116;21.296;2023-04-15T02:38:42;5.70;;;2.15;;
55007;SDS011;40902;45.116;21.296;2023-04-15T02:41:08;6.22;;;2.25;;
55007;SDS011;40902;45.116;21.296;2023-04-15T02:43:36;3.35;;;2.17;;
55007;SDS011;40902;45.116;21.296;2023-04-15T02:46:03;5.20;;;2.20;;
55007;SDS011;40902;45.116;21.296;2023-04-15T02:48:30;3.90;;;2.10;;
55007;SDS011;40902;45.116;21.296;2023-04-15T02:51:15;4.95;;;2.10;;
55007;SDS011;40902;45.116;21.296;2023-04-15T02:53:41;4.57;;;2.20;;
55007;SDS011;40902;45.116;21.296;2023-04-15T02:56:07;8.07;;;2.65;;
55007;SDS011;40902;45.116;21.296;2023-04-15T02:58:34;5.50;;;2.50;;
55007;SDS011;40902;45.116;21.296;2023-04-15T03:01:00;4.10;;;1.95;;
55007;SDS011;40902;45.116;21.296;2023-04-15T03:03:26;4.63;;;2.53;;
55007;SDS011;40902;45.116;21.296;2023-04-15T03:05:52;4.85;;;2.03;;
55007;SDS011;40902;45.116;21.296;2023-04-15T03:08:19;5.65;;;2.20;;
55007;SDS011;40902;45.116;21.296;2023-04-15T03:10:45;3.67;;;2.03;;
55007;SDS011;40902;45.116;21.296;2023-04-15T03:13:11;4.57;;;2.10;;
55007;SDS011;40902;45.116;21.296;2023-04-15T03:15:37;6.43;;;2.13;;
55007;SDS011;40902;45.116;21.296;2023-04-15T03:18:03;3.92;;;2.25;;
55007;SDS011;40902;45.116;21.296;2023-04-15T03:20:30;4.63;;;2.30;;
55007;SDS011;40902;45.116;21.296;2023-04-15T03:22:56;4.15;;;2.08;;
55007;SDS011;40902;45.116;21.296;2023-04-15T03:25:22;5.05;;;2.53;;
55007;SDS011;40902;45.116;21.296;2023-04-15T03:27:48;4.95;;;2.03;;
55007;SDS011;40902;45.116;21.296;2023-04-15T03:30:15;5.63;;;2.30;;
55007;SDS011;40902;45.116;21.296;2023-04-15T03:32:41;5.50;;;2.30;;
55007;SDS011;40902;45.116;21.296;2023-04-15T03:35:07;4.68;;;2.83;;
55007;SDS011;40902;45.116;21.296;2023-04-15T03:37:33;4.97;;;2.50;;
55007;SDS011;40902;45.116;21.296;2023-04-15T03:39:59;4.85;;;2.40;;
55007;SDS011;40902;45.116;21.296;2023-04-15T03:42:25;4.82;;;2.60;;
55007;SDS011;40902;45.116;21.296;2023-04-15T03:44:51;4.32;;;2.63;;
55007;SDS011;40902;45.116;21.296;2023-04-15T03:47:16;6.65;;;3.03;;
55007;SDS011;40902;45.116;21.296;2023-04-15T03:49:42;4.55;;;2.38;;
55007;SDS011;40902;45.116;21.296;2023-04-15T03:52:08;4.53;;;2.38;;
55007;SDS011;40902;45.116;21.296;2023-04-15T03:54:33;4.72;;;2.47;;
55007;SDS011;40902;45.116;21.296;2023-04-15T03:56:59;4.88;;;2.33;;
55007;SDS011;40902;45.116;21.296;2023-04-15T03:59:25;3.85;;;2.28;;
55007;SDS011;40902;45.116;21.296;2023-04-15T04:01:51;3.95;;;2.08;;
55007;SDS011;40902;45.116;21.296;2023-04-15T04:04:17;6.28;;;2.60;;
55007;SDS011;40902;45.116;21.296;2023-04-15T04:06:42;4.90;;;2.55;;
55007;SDS011;40902;45.116;21.296;2023-04-15T04:09:08;6.30;;;2.90;;
55007;SDS011;40902;45.116;21.296;2023-04-15T04:11:34;6.70;;;2.63;;
55007;SDS011;40902;45.116;21.296;2023-04-15T04:13:59;5.72;;;2.60;;
55007;SDS011;40902;45.116;21.296;2023-04-15T04:16:25;6.50;;;2.90;;
55007;SDS011;40902;45.116;21.296;2023-04-15T04:18:51;7.07;;;3.17;;
55007;SDS011;40902;45.116;21.296;2023-04-15T04:21:16;6.18;;;2.92;;
55007;SDS011;40902;45.116;21.296;2023-04-15T04:23:42;5.32;;;2.67;;
55007;SDS011;40902;45.116;21.296;2023-04-15T04:26:08;5.35;;;2.70;;
55007;SDS011;40902;45.116;21.296;2023-04-15T04:28:33;5.05;;;2.53;;
55007;SDS011;40902;45.116;21.296;2023-04-15T04:31:00;4.25;;;2.30;;
55007;SDS011;40902;45.116;21.296;2023-04-15T04:33:26;4.90;;;2.63;;
55007;SDS011;40902;45.116;21.296;2023-04-15T04:35:52;4.05;;;1.90;;
55007;SDS011;40902;45.116;21.296;2023-04-15T04:38:17;5.32;;;2.15;;
55007;SDS011;40902;45.116;21.296;2023-04-15T04:40:43;5.68;;;2.47;;
55007;SDS011;40902;45.116;21.296;2023-04-15T04:43:08;4.70;;;2.10;;
55007;SDS011;40902;45.116;21.296;2023-04-15T04:45:34;3.47;;;1.75;;
55007;SDS011;40902;45.116;21.296;2023-04-15T04:48:00;4.50;;;2.10;;
55007;SDS011;40902;45.116;21.296;2023-04-15T04:50:26;4.38;;;2.00;;
55007;SDS011;40902;45.116;21.296;2023-04-15T04:52:51;4.10;;;2.20;;
55007;SDS011;40902;45.116;21.296;2023-04-15T04:55:17;3.33;;;2.10;;
55007;SDS011;40902;45.116;21.296;2023-04-15T04:57:43;5.90;;;2.20;;
55007;SDS011;40902;45.116;21.296;2023-04-15T05:00:09;4.65;;;2.05;;
55007;SDS011;40902;45.116;21.296;2023-04-15T05:02:35;4.35;;;2.25;;
55007;SDS011;40902;45.116;21.296;2023-04-15T05:05:00;6.97;;;2.10;;
55007;SDS011;40902;45.116;21.296;2023-04-15T05:07:26;4.93;;;2.13;;
55007;SDS011;40902;45.116;21.296;2023-04-15T05:09:52;5.07;;;2.10;;
55007;SDS011;40902;45.116;21.296;2023-04-15T05:12:17;6.70;;;1.88;;
55007;SDS011;40902;45.116;21.296;2023-04-15T05:14:43;4.97;;;1.70;;
55007;SDS011;40902;45.116;21.296;2023-04-15T05:17:10;4.05;;;2.00;;
55007;SDS011;40902;45.116;21.296;2023-04-15T05:19:36;5.15;;;1.98;;
55007;SDS011;40902;45.116;21.296;2023-04-15T05:22:02;5.72;;;2.22;;
55007;SDS011;40902;45.116;21.296;2023-04-15T05:24:27;4.57;;;2.13;;
55007;SDS011;40902;45.116;21.296;2023-04-15T05:26:53;6.53;;;2.45;;
55007;SDS011;40902;45.116;21.296;2023-04-15T05:29:20;5.03;;;2.50;;
55007;SDS011;40902;45.116;21.296;2023-04-15T05:31:46;6.20;;;2.58;;
55007;SDS011;40902;45.116;21.296;2023-04-15T05:34:11;5.50;;;2.42;;
55007;SDS011;40902;45.116;21.296;2023-04-15T05:36:39;6.22;;;2.50;;
55007;SDS011;40902;45.116;21.296;2023-04-15T05:39:05;5.53;;;2.60;;
55007;SDS011;40902;45.116;21.296;2023-04-15T05:41:31;4.88;;;2.40;;
55007;SDS011;40902;45.116;21.296;2023-04-15T05:43:57;4.63;;;2.03;;
55007;SDS011;40902;45.116;21.296;2023-04-15T05:46:22;6.10;;;2.13;;
55007;SDS011;40902;45.116;21.296;2023-04-15T05:48:48;5.88;;;2.17;;
55007;SDS011;40902;45.116;21.296;2023-04-15T05:51:14;4.43;;;2.15;;
55007;SDS011;40902;45.116;21.296;2023-04-15T05:53:40;4.95;;;2.35;;
55007;SDS011;40902;45.116;21.296;2023-04-15T05:56:06;4.97;;;2.30;;
55007;SDS011;40902;45.116;21.296;2023-04-15T05:58:31;7.20;;;2.80;;
55007;SDS011;40902;45.116;21.296;2023-04-15T06:00:57;6.20;;;2.70;;
55007;SDS011;40902;45.116;21.296;2023-04-15T06:03:23;7.53;;;3.67;;
55007;SDS011;40902;45.116;21.296;2023-04-15T06:05:49;6.03;;;2.78;;
55007;SDS011;40902;45.116;21.296;2023-04-15T06:08:15;4.53;;;2.50;;
55007;SDS011;40902;45.116;21.296;2023-04-15T06:10:41;5.28;;;2.65;;
55007;SDS011;40902;45.116;21.296;2023-04-15T06:13:06;7.25;;;2.78;;
55007;SDS011;40902;45.116;21.296;2023-04-15T06:15:32;5.60;;;2.67;;
55007;SDS011;40902;45.116;21.296;2023-04-15T06:17:58;5.57;;;2.70;;
55007;SDS011;40902;45.116;21.296;2023-04-15T06:20:24;5.45;;;2.53;;
55007;SDS011;40902;45.116;21.296;2023-04-15T06:22:50;4.80;;;2.30;;
55007;SDS011;40902;45.116;21.296;2023-04-15T06:25:16;4.03;;;1.88;;
55007;SDS011;40902;45.116;21.296;2023-04-15T06:27:42;4.00;;;2.13;;
55007;SDS011;40902;45.116;21.296;2023-04-15T06:30:08;7.38;;;2.55;;
55007;SDS011;40902;45.116;21.296;2023-04-15T06:32:34;3.80;;;2.10;;
55007;SDS011;40902;45.116;21.296;2023-04-15T06:35:00;4.47;;;1.95;;
55007;SDS011;40902;45.116;21.296;2023-04-15T06:37:26;5.88;;;2.03;;
55007;SDS011;40902;45.116;21.296;2023-04-15T06:39:52;5.32;;;2.13;;
55007;SDS011;40902;45.116;21.296;2023-04-15T06:42:18;4.95;;;2.08;;
55007;SDS011;40902;45.116;21.296;2023-04-15T06:44:44;5.25;;;2.50;;
55007;SDS011;40902;45.116;21.296;2023-04-15T06:47:10;4.53;;;2.20;;
55007;SDS011;40902;45.116;21.296;2023-04-15T06:49:38;4.18;;;2.47;;
55007;SDS011;40902;45.116;21.296;2023-04-15T06:52:05;4.15;;;1.98;;
55007;SDS011;40902;45.116;21.296;2023-04-15T06:54:31;5.40;;;2.10;;
55007;SDS011;40902;45.116;21.296;2023-04-15T06:56:57;3.95;;;2.00;;
55007;SDS011;40902;45.116;21.296;2023-04-15T06:59:23;6.20;;;2.70;;
55007;SDS011;40902;45.116;21.296;2023-04-15T07:01:49;6.97;;;3.30;;
55007;SDS011;40902;45.116;21.296;2023-04-15T07:04:15;6.80;;;2.83;;
55007;SDS011;40902;45.116;21.296;2023-04-15T07:06:42;5.28;;;2.28;;
55007;SDS011;40902;45.116;21.296;2023-04-15T07:09:08;3.80;;;1.83;;
55007;SDS011;40902;45.116;21.296;2023-04-15T07:11:34;4.25;;;1.90;;
55007;SDS011;40902;45.116;21.296;2023-04-15T07:14:00;5.40;;;2.05;;
55007;SDS011;40902;45.116;21.296;2023-04-15T07:16:26;7.15;;;4.20;;
55007;SDS011;40902;45.116;21.296;2023-04-15T07:18:53;6.15;;;2.70;;
55007;SDS011;40902;45.116;21.296;2023-04-15T07:21:19;6.35;;;3.47;;
55007;SDS011;40902;45.116;21.296;2023-04-15T07:23:45;5.38;;;2.72;;
55007;SDS011;40902;45.116;21.296;2023-04-15T07:26:11;3.13;;;1.63;;
55007;SDS011;40902;45.116;21.296;2023-04-15T07:28:37;4.32;;;1.52;;
55007;SDS011;40902;45.116;21.296;2023-04-15T07:31:02;4.53;;;1.80;;
55007;SDS011;40902;45.116;21.296;2023-04-15T07:33:28;3.10;;;1.52;;
55007;SDS011;40902;45.116;21.296;2023-04-15T07:35:54;4.82;;;1.90;;
55007;SDS011;40902;45.116;21.296;2023-04-15T07:38:20;2.88;;;1.58;;
55007;SDS011;40902;45.116;21.296;2023-04-15T07:40:47;3.67;;;1.60;;
55007;SDS011;40902;45.116;21.296;2023-04-15T07:43:13;4.78;;;2.25;;
55007;SDS011;40902;45.116;21.296;2023-04-15T07:45:39;2.92;;;1.52;;
55007;SDS011;40902;45.116;21.296;2023-04-15T07:48:05;4.13;;;2.33;;
55007;SDS011;40902;45.116;21.296;2023-04-15T07:50:31;2.78;;;1.48;;
55007;SDS011;40902;45.116;21.296;2023-04-15T07:52:56;4.18;;;1.90;;
55007;SDS011;40902;45.116;21.296;2023-04-15T07:55:22;5.38;;;1.60;;
55007;SDS011;40902;45.116;21.296;2023-04-15T07:57:48;3.28;;;1.52;;
55007;SDS011;40902;45.116;21.296;2023-04-15T08:00:14;4.47;;;1.90;;
55007;SDS011;40902;45.116;21.296;2023-04-15T08:02:44;6.50;;;4.68;;
55007;SDS011;40902;45.116;21.296;2023-04-15T08:05:11;3.70;;;1.95;;
55007;SDS011;40902;45.116;21.296;2023-04-15T08:07:38;3.45;;;1.98;;
55007;SDS011;40902;45.116;21.296;2023-04-15T08:10:05;2.25;;;1.40;;
55007;SDS011;40902;45.116;21.296;2023-04-15T08:12:31;2.67;;;1.48;;
55007;SDS011;40902;45.116;21.296;2023-04-15T08:14:57;3.47;;;1.33;;
55007;SDS011;40902;45.116;21.296;2023-04-15T08:17:23;3.20;;;1.20;;
55007;SDS011;40902;45.116;21.296;2023-04-15T08:19:49;2.58;;;1.33;;
55007;SDS011;40902;45.116;21.296;2023-04-15T08:22:14;2.28;;;1.38;;
55007;SDS011;40902;45.116;21.296;2023-04-15T08:24:40;3.78;;;1.60;;
55007;SDS011;40902;45.116;21.296;2023-04-15T08:27:06;4.00;;;1.83;;
55007;SDS011;40902;45.116;21.296;2023-04-15T08:29:33;7.20;;;1.83;;
55007;SDS011;40902;45.116;21.296;2023-04-15T08:31:59;3.53;;;1.90;;
55007;SDS011;40902;45.116;21.296;2023-04-15T08:34:26;2.92;;;1.70;;
55007;SDS011;40902;45.116;21.296;2023-04-15T08:36:52;2.90;;;1.65;;
55007;SDS011;40902;45.116;21.296;2023-04-15T08:39:17;8.32;;;2.50;;
55007;SDS011;40902;45.116;21.296;2023-04-15T08:41:44;3.85;;;2.00;;
55007;SDS011;40902;45.116;21.296;2023-04-15T08:44:12;5.38;;;1.77;;
55007;SDS011;40902;45.116;21.296;2023-04-15T08:46:38;1.80;;;1.27;;
55007;SDS011;40902;45.116;21.296;2023-04-15T08:49:08;3.28;;;1.83;;
55007;SDS011;40902;45.116;21.296;2023-04-15T08:51:39;4.20;;;1.60;;
55007;SDS011;40902;45.116;21.296;2023-04-15T08:54:05;3.38;;;2.00;;
55007;SDS011;40902;45.116;21.296;2023-04-15T08:56:32;2.30;;;1.30;;
55007;SDS011;40902;45.116;21.296;2023-04-15T08:58:59;3.28;;;1.42;;
55007;SDS011;40902;45.116;21.296;2023-04-15T09:01:26;2.20;;;1.35;;
55007;SDS011;40902;45.116;21.296;2023-04-15T09:03:52;2.60;;;1.10;;
55007;SDS011;40902;45.116;21.296;2023-04-15T09:06:19;2.55;;;1.10;;
55007;SDS011;40902;45.116;21.296;2023-04-15T09:08:45;2.50;;;1.30;;
55007;SDS011;40902;45.116;21.296;2023-04-15T09:11:12;2.92;;;1.20;;
55007;SDS011;40902;45.116;21.296;2023-04-15T09:13:38;1.52;;;0.90;;
55007;SDS011;40902;45.116;21.296;2023-04-15T09:16:04;3.38;;;1.17;;
55007;SDS011;40902;45.116;21.296;2023-04-15T09:18:31;1.65;;;0.95;;
55007;SDS011;40902;45.116;21.296;2023-04-15T09:23:39;2.65;;;1.25;;
55007;SDS011;40902;45.116;21.296;2023-04-15T09:26:05;3.30;;;1.60;;
55007;SDS011;40902;45.116;21.296;2023-04-15T09:28:32;2.28;;;1.02;;
55007;SDS011;40902;45.116;21.296;2023-04-15T09:31:00;2.70;;;1.05;;
55007;SDS011;40902;45.116;21.296;2023-04-15T09:33:27;1.67;;;1.10;;
55007;SDS011;40902;45.116;21.296;2023-04-15T09:38:23;3.58;;;1.02;;
55007;SDS011;40902;45.116;21.296;2023-04-15T09:40:49;3.33;;;1.15;;
55007;SDS011;40902;45.116;21.296;2023-04-15T09:43:15;2.10;;;1.15;;
55007;SDS011;40902;45.116;21.296;2023-04-15T09:45:52;6.38;;;2.97;;
55007;SDS011;40902;45.116;21.296;2023-04-15T09:48:24;5.32;;;3.03;;
55007;SDS011;40902;45.116;21.296;2023-04-15T09:50:52;3.45;;;1.50;;
55007;SDS011;40902;45.116;21.296;2023-04-15T09:53:19;2.65;;;0.90;;
55007;SDS011;40902;45.116;21.296;2023-04-15T09:56:07;2.20;;;0.90;;
55007;SDS011;40902;45.116;21.296;2023-04-15T09:58:34;2.30;;;1.00;;
55007;SDS011;40902;45.116;21.296;2023-04-15T10:01:04;2.53;;;0.93;;
55007;SDS011;40902;45.116;21.296;2023-04-15T10:03:33;1.83;;;1.10;;
55007;SDS011;40902;45.116;21.296;2023-04-15T10:06:02;2.03;;;1.00;;
55007;SDS011;40902;45.116;21.296;2023-04-15T10:08:30;1.40;;;0.77;;
55007;SDS011;40902;45.116;21.296;2023-04-15T10:10:57;4.10;;;1.05;;
55007;SDS011;40902;45.116;21.296;2023-04-15T10:13:26;3.22;;;1.08;;
55007;SDS011;40902;45.116;21.296;2023-04-15T10:16:04;2.95;;;1.10;;
55007;SDS011;40902;45.116;21.296;2023-04-15T10:18:33;3.35;;;1.10;;
55007;SDS011;40902;45.116;21.296;2023-04-15T10:21:00;7.25;;;1.52;;
55007;SDS011;40902;45.116;21.296;2023-04-15T10:23:26;3.95;;;1.50;;
55007;SDS011;40902;45.116;21.296;2023-04-15T10:25:52;4.07;;;1.48;;
55007;SDS011;40902;45.116;21.296;2023-04-15T10:28:19;5.53;;;1.60;;
55007;SDS011;40902;45.116;21.296;2023-04-15T10:30:47;3.72;;;1.20;;
55007;SDS011;40902;45.116;21.296;2023-04-15T10:33:14;5.30;;;1.30;;
55007;SDS011;40902;45.116;21.296;2023-04-15T10:35:44;2.97;;;1.42;;
55007;SDS011;40902;45.116;21.296;2023-04-15T10:43:37;2.60;;;1.50;;
55007;SDS011;40902;45.116;21.296;2023-04-15T10:46:04;4.03;;;1.02;;
55007;SDS011;40902;45.116;21.296;2023-04-15T10:48:32;1.77;;;1.25;;
55007;SDS011;40902;45.116;21.296;2023-04-15T10:51:01;4.18;;;1.15;;
55007;SDS011;40902;45.116;21.296;2023-04-15T10:53:29;2.90;;;1.30;;
55007;SDS011;40902;45.116;21.296;2023-04-15T10:55:56;1.58;;;1.00;;
55007;SDS011;40902;45.116;21.296;2023-04-15T10:58:22;3.45;;;1.40;;
55007;SDS011;40902;45.116;21.296;2023-04-15T11:00:49;1.50;;;0.93;;
55007;SDS011;40902;45.116;21.296;2023-04-15T11:03:20;2.60;;;1.20;;
55007;SDS011;40902;45.116;21.296;2023-04-15T11:06:03;2.20;;;1.02;;
55007;SDS011;40902;45.116;21.296;2023-04-15T11:11:25;1.83;;;1.08;;
55007;SDS011;40902;45.116;21.296;2023-04-15T11:14:38;2.03;;;0.88;;
55007;SDS011;40902;45.116;21.296;2023-04-15T11:17:05;3.45;;;1.10;;
55007;SDS011;40902;45.116;21.296;2023-04-15T11:19:35;3.00;;;1.10;;
55007;SDS011;40902;45.116;21.296;2023-04-15T11:22:08;2.42;;;1.30;;
55007;SDS011;40902;45.116;21.296;2023-04-15T11:24:35;3.50;;;1.20;;
55007;SDS011;40902;45.116;21.296;2023-04-15T11:27:01;3.40;;;1.73;;
55007;SDS011;40902;45.116;21.296;2023-04-15T11:29:30;3.45;;;1.30;;
55007;SDS011;40902;45.116;21.296;2023-04-15T11:32:05;2.78;;;1.50;;
55007;SDS011;40902;45.116;21.296;2023-04-15T11:34:33;3.65;;;1.40;;
55007;SDS011;40902;45.116;21.296;2023-04-15T11:37:04;4.70;;;1.63;;
55007;SDS011;40902;45.116;21.296;2023-04-15T11:39:30;3.78;;;1.42;;
55007;SDS011;40902;45.116;21.296;2023-04-15T11:41:56;2.70;;;1.20;;
55007;SDS011;40902;45.116;21.296;2023-04-15T11:44:22;2.47;;;1.30;;
55007;SDS011;40902;45.116;21.296;2023-04-15T11:46:47;2.03;;;1.33;;
55007;SDS011;40902;45.116;21.296;2023-04-15T11:49:29;4.03;;;1.38;;
55007;SDS011;40902;45.116;21.296;2023-04-15T11:51:55;2.17;;;1.27;;
55007;SDS011;40902;45.116;21.296;2023-04-15T11:54:21;4.55;;;2.20;;
55007;SDS011;40902;45.116;21.296;2023-04-15T11:56:50;2.30;;;1.30;;
55007;SDS011;40902;45.116;21.296;2023-04-15T11:59:17;2.97;;;1.42;;
55007;SDS011;40902;45.116;21.296;2023-04-15T12:01:43;3.22;;;1.63;;
55007;SDS011;40902;45.116;21.296;2023-04-15T12:04:14;6.57;;;1.63;;
55007;SDS011;40902;45.116;21.296;2023-04-15T12:06:43;2.42;;;1.20;;
55007;SDS011;40902;45.116;21.296;2023-04-15T12:11:40;2.75;;;1.25;;
55007;SDS011;40902;45.116;21.296;2023-04-15T12:16:56;3.65;;;1.13;;
55007;SDS011;40902;45.116;21.296;2023-04-15T12:19:27;2.80;;;1.40;;
55007;SDS011;40902;45.116;21.296;2023-04-15T12:21:56;2.72;;;1.10;;
55007;SDS011;40902;45.116;21.296;2023-04-15T12:24:23;3.03;;;1.20;;
55007;SDS011;40902;45.116;21.296;2023-04-15T12:26:53;2.10;;;1.20;;
55007;SDS011;40902;45.116;21.296;2023-04-15T12:29:24;2.08;;;1.27;;
55007;SDS011;40902;45.116;21.296;2023-04-15T12:34:17;3.13;;;1.05;;
55007;SDS011;40902;45.116;21.296;2023-04-15T12:36:44;3.75;;;1.60;;
55007;SDS011;40902;45.116;21.296;2023-04-15T12:39:10;3.15;;;1.40;;
55007;SDS011;40902;45.116;21.296;2023-04-15T12:41:36;3.80;;;1.48;;
55007;SDS011;40902;45.116;21.296;2023-04-15T12:44:02;3.80;;;1.42;;
55007;SDS011;40902;45.116;21.296;2023-04-15T12:46:28;4.25;;;2.03;;
55007;SDS011;40902;45.116;21.296;2023-04-15T12:48:54;4.05;;;1.55;;
55007;SDS011;40902;45.116;21.296;2023-04-15T12:51:20;4.38;;;1.27;;
55007;SDS011;40902;45.116;21.296;2023-04-15T12:53:46;4.15;;;1.40;;
55007;SDS011;40902;45.116;21.296;2023-04-15T12:56:13;3.22;;;1.75;;
55007;SDS011;40902;45.116;21.296;2023-04-15T12:58:40;3.40;;;1.55;;
55007;SDS011;40902;45.116;21.296;2023-04-15T13:01:07;2.35;;;1.42;;
55007;SDS011;40902;45.116;21.296;2023-04-15T13:03:34;4.50;;;1.40;;
55007;SDS011;40902;45.116;21.296;2023-04-15T13:06:00;5.95;;;1.70;;
55007;SDS011;40902;45.116;21.296;2023-04-15T13:08:28;6.57;;;1.60;;
55007;SDS011;40902;45.116;21.296;2023-04-15T13:10:54;2.10;;;1.27;;
55007;SDS011;40902;45.116;21.296;2023-04-15T13:13:20;4.38;;;1.85;;
55007;SDS011;40902;45.116;21.296;2023-04-15T13:15:46;4.60;;;1.60;;
55007;SDS011;40902;45.116;21.296;2023-04-15T13:18:13;3.03;;;1.48;;
55007;SDS011;40902;45.116;21.296;2023-04-15T13:20:39;5.43;;;1.35;;
55007;SDS011;40902;45.116;21.296;2023-04-15T13:23:05;3.22;;;1.30;;
55007;SDS011;40902;45.116;21.296;2023-04-15T13:25:31;2.97;;;1.73;;
55007;SDS011;40902;45.116;21.296;2023-04-15T13:27:57;5.80;;;1.38;;
55007;SDS011;40902;45.116;21.296;2023-04-15T13:30:25;3.03;;;1.40;;
55007;SDS011;40902;45.116;21.296;2023-04-15T13:32:51;4.85;;;1.48;;
55007;SDS011;40902;45.116;21.296;2023-04-15T13:35:18;3.28;;;1.60;;
55007;SDS011;40902;45.116;21.296;2023-04-15T13:37:44;7.60;;;3.75;;
55007;SDS011;40902;45.116;21.296;2023-04-15T13:40:10;4.65;;;1.65;;
55007;SDS011;40902;45.116;21.296;2023-04-15T13:42:36;4.07;;;1.45;;
55007;SDS011;40902;45.116;21.296;2023-04-15T13:45:03;3.35;;;1.30;;
55007;SDS011;40902;45.116;21.296;2023-04-15T13:47:29;5.03;;;1.60;;
55007;SDS011;40902;45.116;21.296;2023-04-15T13:49:55;6.40;;;1.77;;
55007;SDS011;40902;45.116;21.296;2023-04-15T13:52:21;4.97;;;1.70;;
55007;SDS011;40902;45.116;21.296;2023-04-15T13:54:48;3.63;;;1.88;;
55007;SDS011;40902;45.116;21.296;2023-04-15T13:57:14;4.80;;;1.48;;
55007;SDS011;40902;45.116;21.296;2023-04-15T13:59:40;2.50;;;1.17;;
55007;SDS011;40902;45.116;21.296;2023-04-15T14:02:08;4.93;;;1.75;;
55007;SDS011;40902;45.116;21.296;2023-04-15T14:04:34;2.70;;;1.50;;
55007;SDS011;40902;45.116;21.296;2023-04-15T14:07:00;4.75;;;1.45;;
55007;SDS011;40902;45.116;21.296;2023-04-15T14:09:26;4.95;;;1.60;;
55007;SDS011;40902;45.116;21.296;2023-04-15T14:11:52;4.20;;;1.80;;
55007;SDS011;40902;45.116;21.296;2023-04-15T14:14:18;3.95;;;1.55;;
55007;SDS011;40902;45.116;21.296;2023-04-15T14:16:44;2.70;;;1.55;;
55007;SDS011;40902;45.116;21.296;2023-04-15T14:19:11;3.10;;;1.42;;
55007;SDS011;40902;45.116;21.296;2023-04-15T14:21:37;2.75;;;1.30;;
55007;SDS011;40902;45.116;21.296;2023-04-15T14:24:03;1.42;;;0.90;;
55007;SDS011;40902;45.116;21.296;2023-04-15T14:26:30;5.57;;;1.73;;
55007;SDS011;40902;45.116;21.296;2023-04-15T14:28:56;4.45;;;1.40;;
55007;SDS011;40902;45.116;21.296;2023-04-15T14:31:22;2.38;;;1.20;;
55007;SDS011;40902;45.116;21.296;2023-04-15T14:33:48;2.25;;;1.40;;
55007;SDS011;40902;45.116;21.296;2023-04-15T14:36:14;4.43;;;1.40;;
55007;SDS011;40902;45.116;21.296;2023-04-15T14:38:40;5.63;;;2.15;;
55007;SDS011;40902;45.116;21.296;2023-04-15T14:41:06;6.22;;;1.88;;
55007;SDS011;40902;45.116;21.296;2023-04-15T14:43:33;10.27;;;2.28;;
55007;SDS011;40902;45.116;21.296;2023-04-15T14:45:59;3.28;;;1.77;;
55007;SDS011;40902;45.116;21.296;2023-04-15T14:48:25;5.03;;;1.67;;
55007;SDS011;40902;45.116;21.296;2023-04-15T14:50:52;3.83;;;1.67;;